Tahoe Paradise, CA (96155)

9:33 PM PST on February 28, 2015 (GMT -0800)
Tahoe Swiss Village | Change Station
CLOSE
Current Station
Personal Weather Station
Location: Homewood, CA
Elevation: 6350 ft
Nearby Weather Stations

Elev 6350 ft 39.10 °N, 120.17 °W | Updated 6 seconds ago

Snow
Snow
28.8 °F
Feels Like 29 °F
N
0.0
Wind Variable Wind from NE
Gusts 0.7 mph

Today
High -- | Low -- °F
--% Chance of Precip.
Yesterday
High -- | Low -- °F
Precip. -- in
6:34 AM 5:51 PM
Waxing Gibbous, 82% visible
Pressure 29.85 in
Visibility 0.8 miles
Clouds Mostly Cloudy 1400 ft
Mostly Cloudy 2400 ft
Overcast 3200 ft
Windchill 29 °F
Dew Point 26 °F
Humidity 88%
Rainfall 0.00 in
Snow Depth Not available.
UV 0 out of 12
Pollen 4.80 out of 12
Air Quality Not available.
Flu Activity Not available.
SPECI KTVL 010515Z AUTO VRB04KT 3/4SM -SN BKN014 BKN024 OVC032 00/M03 A2985 RMK AO2 P0000 T00001033

More Conditions Fewer Conditions

Pressure 29.85 in
Visibility 0.8 miles
Clouds Mostly Cloudy 1400 ft
Mostly Cloudy 2400 ft
Overcast 3200 ft
Windchill 29 °F
Dew Point 26 °F
Humidity 88%
Rainfall 0.00 in
Snow Depth Not available.
UV 0 out of 12
Pollen 4.80 out of 12
Air Quality Not available.
Flu Activity Not available.
SPECI KTVL 010515Z AUTO VRB04KT 3/4SM -SN BKN014 BKN024 OVC032 00/M03 A2985 RMK AO2 P0000 T00001033

More Conditions Fewer Conditions

10-Day Weather Forecast

Almanac

Astronomy

Feb. 28, 2015 Rise Set
Actual Time
Civil Twilight
Nautical Twilight
Astronomical Twilight
Moon
Length of Visible Light
Length of Day
Tomorrow will be .
, % of the Moon is Illuminated

Today's Extremes

State Highs State Lows

Community

WunderPhotos

Upload Photos

1,801,335 photos uploaded!

WunderBlogs® & News

Nearby

Air Quality

  Air Quality AQ Index Pollutant
Not available.

Snow Depth

Station Depth Elevation

Earthquake Activity

City Distance Mag. Time & Date
Minimum magnitude displayed is 2.5.

Coastal Water Temperatures

Place Temperature

Nearby Weather Stations